createdAt,value
2022-12-03T00:02:31.333Z,25.83
2022-12-03T00:05:33.860Z,25.37
2022-12-03T00:08:36.123Z,25.25
2022-12-03T00:11:38.556Z,26.23
2022-12-03T00:14:44.603Z,26.70
2022-12-03T00:17:47.415Z,25.35
2022-12-03T00:20:49.480Z,25.80
2022-12-03T00:23:51.877Z,25.02
2022-12-03T00:26:53.944Z,25.95
2022-12-03T00:29:56.300Z,26.52
2022-12-03T00:32:58.378Z,26.25
2022-12-03T00:36:00.718Z,27.00
2022-12-03T00:39:02.912Z,27.33
2022-12-03T00:42:05.538Z,28.25
2022-12-03T00:45:07.986Z,26.20
2022-12-03T00:48:10.328Z,28.30
2022-12-03T00:51:12.392Z,26.73
2022-12-03T00:54:15.176Z,26.77
2022-12-03T00:57:17.298Z,27.20
2022-12-03T01:00:24.502Z,27.13
2022-12-03T01:03:26.854Z,25.83
2022-12-03T01:06:29.284Z,26.60
2022-12-03T01:09:31.497Z,27.87
2022-12-03T01:12:33.929Z,27.37
2022-12-03T01:15:36.122Z,27.17
2022-12-03T01:18:38.550Z,27.00
2022-12-03T01:21:40.675Z,28.33
2022-12-03T01:24:43.017Z,27.65
2022-12-03T01:27:45.107Z,28.55
2022-12-03T01:31:06.181Z,26.75
2022-12-03T01:34:08.317Z,26.52
2022-12-03T01:37:10.723Z,26.55
2022-12-03T01:40:16.412Z,27.08
2022-12-03T01:43:18.838Z,25.98
2022-12-03T01:46:23.627Z,26.98
2022-12-03T01:49:40.788Z,28.65
2022-12-03T01:52:44.188Z,27.50
2022-12-03T01:55:48.893Z,26.40
2022-12-03T01:58:51.298Z,27.37
2022-12-03T02:01:53.705Z,28.20
2022-12-03T02:04:57.216Z,27.48
2022-12-03T02:08:01.055Z,28.90
2022-12-03T02:11:14.273Z,27.30
2022-12-03T02:14:20.203Z,27.92
2022-12-03T02:17:22.417Z,28.12
2022-12-03T02:20:24.834Z,28.40
2022-12-03T02:23:32.104Z,27.40
2022-12-03T02:26:34.584Z,28.40
2022-12-03T02:29:36.874Z,27.73
2022-12-03T02:32:39.943Z,28.48
2022-12-03T02:35:42.161Z,27.33
2022-12-03T02:38:48.096Z,27.45
2022-12-03T02:42:08.837Z,28.40
2022-12-03T02:45:11.600Z,26.30
2022-12-03T02:48:21.141Z,27.85
2022-12-03T02:51:23.799Z,26.42
2022-12-03T02:54:25.993Z,27.98
2022-12-03T02:57:28.412Z,27.75
2022-12-03T03:00:30.969Z,26.60
2022-12-03T03:03:33.746Z,27.70
2022-12-03T03:06:35.965Z,26.65
2022-12-03T03:09:38.584Z,27.62
2022-12-03T03:12:41.454Z,26.98
2022-12-03T03:15:45.410Z,26.92
2022-12-03T03:18:48.681Z,26.23
2022-12-03T03:21:51.588Z,27.20
2022-12-03T03:24:54.004Z,27.83
2022-12-03T03:27:56.663Z,27.58
2022-12-03T03:31:02.493Z,27.20
2022-12-03T03:34:05.344Z,26.92
2022-12-03T03:37:07.486Z,28.17
2022-12-03T03:40:10.534Z,27.00
2022-12-03T03:43:13.695Z,26.17
2022-12-03T03:46:17.590Z,28.50
2022-12-03T03:49:20.113Z,27.02
2022-12-03T03:52:23.123Z,26.45
2022-12-03T03:55:25.528Z,26.62
2022-12-03T03:58:27.973Z,26.62
2022-12-03T04:01:30.984Z,27.17
2022-12-03T04:04:36.565Z,27.48
2022-12-03T04:07:38.871Z,26.75
2022-12-03T04:11:00.080Z,26.80
2022-12-03T04:14:02.690Z,28.70
2022-12-03T04:17:05.110Z,27.92
2022-12-03T04:20:07.420Z,27.08
2022-12-03T04:23:10.428Z,26.77
2022-12-03T04:26:30.925Z,27.80
2022-12-03T04:29:33.349Z,27.90
2022-12-03T04:32:54.383Z,28.17
2022-12-03T04:38:58.710Z,28.70
2022-12-03T04:42:01.668Z,27.30
2022-12-03T04:45:03.974Z,28.45
2022-12-03T04:48:06.405Z,27.62
2022-12-03T04:51:08.528Z,28.67
2022-12-03T04:54:11.006Z,29.17
2022-12-03T04:57:13.245Z,30.17
2022-12-03T05:00:16.103Z,28.60
2022-12-03T05:03:18.251Z,28.98
2022-12-03T05:06:20.616Z,28.92
2022-12-03T05:09:23.200Z,29.80
2022-12-03T05:12:25.592Z,28.33
2022-12-03T05:15:27.681Z,29.77
2022-12-03T05:18:30.053Z,30.08
2022-12-03T05:21:32.272Z,29.42
2022-12-03T05:24:34.600Z,29.48
2022-12-03T05:27:36.973Z,28.58
2022-12-03T05:30:39.494Z,28.52
2022-12-03T05:33:44.379Z,29.55
2022-12-03T05:36:46.941Z,28.75
2022-12-03T05:39:49.058Z,28.45
2022-12-03T05:42:54.073Z,27.55
2022-12-03T05:45:56.197Z,27.35
2022-12-03T05:48:58.660Z,27.33
2022-12-03T05:52:00.739Z,27.70
2022-12-03T05:55:04.404Z,26.02
2022-12-03T05:58:06.519Z,27.83
2022-12-03T06:01:08.891Z,26.52
2022-12-03T06:04:11.309Z,26.15
2022-12-03T06:07:14.334Z,27.70
2022-12-03T06:10:20.880Z,26.50
2022-12-03T06:13:22.978Z,26.92
2022-12-03T06:16:25.480Z,26.87
2022-12-03T06:19:27.717Z,26.83
2022-12-03T06:22:30.099Z,25.35
2022-12-03T06:25:32.508Z,25.73
2022-12-03T06:28:36.730Z,26.62
2022-12-03T06:31:38.890Z,26.42
2022-12-03T06:34:41.391Z,27.25
2022-12-03T06:37:43.506Z,26.90
2022-12-03T06:40:45.877Z,25.88
2022-12-03T06:43:47.953Z,26.25
2022-12-03T06:46:50.420Z,26.77
2022-12-03T06:49:52.583Z,26.40
2022-12-03T06:52:54.972Z,27.02
2022-12-03T06:55:57.232Z,27.70
2022-12-03T06:58:59.777Z,26.73
2022-12-03T07:02:01.910Z,27.25
2022-12-03T07:05:04.830Z,26.52
2022-12-03T07:08:07.081Z,25.25
2022-12-03T07:11:29.496Z,27.15
2022-12-03T07:14:31.636Z,28.00
2022-12-03T07:17:34.091Z,28.08
2022-12-03T07:20:36.280Z,28.73
2022-12-03T07:23:38.968Z,28.35
2022-12-03T07:26:41.115Z,28.83
2022-12-03T07:29:43.478Z,28.90
2022-12-03T07:32:45.640Z,27.83
2022-12-03T07:35:47.959Z,29.00
2022-12-03T07:38:50.157Z,27.37
2022-12-03T07:41:52.617Z,26.95
2022-12-03T07:44:55.060Z,28.17
2022-12-03T07:47:57.667Z,26.98
2022-12-03T07:50:59.854Z,27.65
2022-12-03T07:54:02.316Z,27.70
2022-12-03T07:57:04.487Z,28.08
2022-12-03T08:00:07.514Z,28.33
2022-12-03T08:03:11.001Z,27.77
2022-12-03T08:06:13.198Z,28.25
2022-12-03T08:09:16.423Z,27.35
2022-12-03T08:12:39.922Z,28.62
2022-12-03T08:15:43.077Z,28.20
2022-12-03T08:18:46.775Z,27.55
2022-12-03T08:21:49.125Z,29.00
2022-12-03T08:24:51.436Z,29.35
2022-12-03T08:28:02.668Z,29.25
2022-12-03T08:31:18.304Z,29.70
2022-12-03T08:34:34.091Z,28.83
2022-12-03T08:37:36.226Z,28.10
2022-12-03T08:40:43.552Z,29.80
2022-12-03T08:43:46.359Z,29.92
2022-12-03T08:47:08.871Z,29.05
2022-12-03T08:50:29.146Z,28.45
2022-12-03T08:53:47.700Z,29.48
2022-12-03T08:56:49.812Z,28.75
2022-12-03T09:00:04.068Z,28.83
2022-12-03T09:03:15.802Z,28.45
2022-12-03T09:06:18.477Z,27.58
2022-12-03T09:09:21.476Z,27.77
2022-12-03T09:12:23.885Z,27.80
2022-12-03T09:15:26.026Z,28.70
2022-12-03T09:18:28.377Z,29.63
2022-12-03T09:21:30.435Z,26.92
2022-12-03T09:24:32.792Z,27.67
2022-12-03T09:27:34.886Z,27.45
2022-12-03T09:30:37.283Z,26.35
2022-12-03T09:33:39.532Z,27.25
2022-12-03T09:36:41.887Z,27.50
2022-12-03T09:39:43.959Z,28.40
2022-12-03T09:42:46.669Z,27.92
2022-12-03T09:45:49.559Z,27.92
2022-12-03T09:48:52.233Z,27.02
2022-12-03T09:52:00.735Z,27.10
2022-12-03T09:55:15.559Z,27.58
2022-12-03T09:58:19.054Z,27.05
2022-12-03T10:01:21.893Z,26.83
2022-12-03T10:04:24.787Z,26.67
2022-12-03T10:07:27.046Z,26.10
2022-12-03T10:10:29.506Z,25.70
2022-12-03T10:13:32.555Z,24.80
2022-12-03T10:16:35.992Z,27.15
2022-12-03T10:19:39.653Z,24.95
2022-12-03T10:22:42.131Z,25.25
2022-12-03T10:25:52.571Z,24.52
2022-12-03T10:28:56.752Z,24.17
2022-12-03T10:32:05.662Z,24.30
2022-12-03T10:35:20.802Z,24.23
2022-12-03T10:38:23.375Z,25.20
2022-12-03T10:41:27.943Z,23.92
2022-12-03T10:44:30.587Z,22.62
2022-12-03T10:47:33.159Z,24.67
2022-12-03T10:50:35.990Z,23.75
2022-12-03T10:53:40.542Z,23.80
2022-12-03T10:56:43.652Z,23.77
2022-12-03T10:59:46.640Z,22.52
2022-12-03T11:02:54.939Z,23.23
2022-12-03T11:06:00.921Z,22.98
2022-12-03T11:09:08.865Z,23.20
2022-12-03T11:12:23.533Z,21.60
2022-12-03T11:15:43.697Z,19.83
2022-12-03T11:18:59.142Z,19.92
2022-12-03T11:22:07.194Z,20.30
2022-12-03T11:25:24.554Z,20.88
2022-12-03T11:28:26.552Z,19.77
2022-12-03T11:31:36.046Z,19.80
2022-12-03T11:34:38.261Z,20.12
2022-12-03T11:37:40.920Z,20.33
2022-12-03T11:41:08.605Z,20.27
2022-12-03T11:44:30.027Z,19.83
2022-12-03T11:50:53.336Z,18.75
2022-12-03T11:53:59.073Z,19.10
2022-12-03T11:57:02.541Z,18.98
2022-12-03T12:00:15.878Z,20.48
2022-12-03T12:03:34.893Z,17.70
2022-12-03T12:06:42.637Z,17.98
2022-12-03T12:09:53.687Z,18.42
2022-12-03T12:12:57.277Z,17.98
2022-12-03T12:16:01.754Z,18.87
2022-12-03T12:19:31.985Z,18.33
2022-12-03T12:22:34.530Z,17.83
2022-12-03T12:25:41.578Z,18.37
2022-12-03T12:28:44.017Z,19.05
2022-12-03T12:31:50.779Z,18.10
2022-12-03T12:35:16.224Z,18.40
2022-12-03T12:38:20.829Z,17.23
2022-12-03T12:41:24.138Z,18.65
2022-12-03T12:44:27.356Z,17.45
2022-12-03T12:47:30.139Z,18.08
2022-12-03T12:50:33.218Z,18.48
2022-12-03T12:53:38.814Z,19.10
2022-12-03T12:56:43.754Z,18.80
2022-12-03T12:59:46.104Z,18.62
2022-12-03T13:03:01.127Z,19.17
2022-12-03T13:06:04.043Z,19.70
2022-12-03T13:09:15.481Z,22.17
2022-12-03T13:12:21.873Z,20.55
2022-12-03T13:15:41.550Z,20.55
2022-12-03T13:18:47.386Z,20.85
2022-12-03T13:21:51.038Z,18.65
2022-12-03T13:24:56.133Z,19.20
2022-12-03T13:27:58.229Z,19.17
2022-12-03T13:31:22.349Z,18.87
2022-12-03T13:34:30.870Z,17.90
2022-12-03T13:37:33.753Z,18.67
2022-12-03T13:40:36.138Z,18.87
2022-12-03T13:43:44.385Z,18.37
2022-12-03T13:46:47.216Z,19.20
2022-12-03T13:49:54.039Z,17.87
2022-12-03T13:52:56.989Z,17.95
2022-12-03T13:56:38.158Z,18.42
2022-12-03T13:59:40.382Z,18.50
2022-12-03T14:02:42.955Z,18.65
2022-12-03T14:05:45.382Z,17.60
2022-12-03T14:08:47.481Z,18.70
2022-12-03T14:12:08.395Z,17.58
2022-12-03T14:15:11.358Z,18.60
2022-12-03T14:18:13.696Z,17.48
2022-12-03T14:21:16.002Z,18.83
2022-12-03T14:24:18.340Z,17.80
2022-12-03T14:27:21.397Z,17.10
2022-12-03T14:30:23.738Z,17.35
2022-12-03T14:33:25.797Z,16.60
2022-12-03T14:36:28.147Z,17.67
2022-12-03T14:39:30.253Z,17.48
2022-12-03T14:42:32.660Z,16.70
2022-12-03T14:45:34.857Z,16.75
2022-12-03T14:48:37.253Z,16.80
2022-12-03T14:51:39.350Z,17.20
2022-12-03T14:54:42.761Z,17.75
2022-12-03T14:57:45.093Z,17.30
2022-12-03T15:00:47.661Z,17.60
2022-12-03T15:03:49.884Z,17.50
2022-12-03T15:06:52.313Z,17.00
2022-12-03T15:09:54.720Z,16.75
2022-12-03T15:12:57.242Z,18.08
2022-12-03T15:15:59.520Z,16.48
2022-12-03T15:19:02.029Z,16.45
2022-12-03T15:22:04.297Z,16.50
2022-12-03T15:25:07.672Z,17.42
2022-12-03T15:28:10.158Z,16.58
2022-12-03T15:31:12.517Z,16.87
2022-12-03T15:34:20.346Z,16.92
2022-12-03T15:37:27.615Z,16.67
2022-12-03T15:40:29.787Z,16.00
2022-12-03T15:43:32.190Z,16.20
2022-12-03T15:46:34.393Z,17.00
2022-12-03T15:49:36.796Z,16.58
2022-12-03T15:52:38.955Z,16.50
2022-12-03T15:55:41.408Z,16.55
2022-12-03T15:58:43.930Z,16.35
2022-12-03T16:01:46.312Z,16.60
2022-12-03T16:04:48.870Z,17.50
2022-12-03T16:07:51.098Z,17.08
2022-12-03T16:10:53.871Z,17.12
2022-12-03T16:13:56.231Z,18.00
2022-12-03T16:17:02.155Z,18.10
2022-12-03T16:20:05.468Z,17.60
2022-12-03T16:23:08.189Z,17.58
2022-12-03T16:26:10.241Z,18.35
2022-12-03T16:29:12.627Z,19.00
2022-12-03T16:32:14.717Z,17.90
2022-12-03T16:35:17.230Z,18.20
2022-12-03T16:38:19.312Z,18.25
2022-12-03T16:41:22.621Z,18.98
2022-12-03T16:44:34.038Z,19.45
2022-12-03T16:47:36.601Z,18.45
2022-12-03T16:50:38.718Z,19.60
2022-12-03T16:53:41.218Z,19.58
2022-12-03T16:56:43.347Z,18.15
2022-12-03T16:59:45.900Z,19.73
2022-12-03T17:02:48.681Z,20.02
2022-12-03T17:05:51.098Z,20.37
2022-12-03T17:08:53.211Z,20.58
2022-12-03T17:11:55.598Z,19.90
2022-12-03T17:14:57.679Z,20.98
2022-12-03T17:18:00.514Z,20.75
2022-12-03T17:21:02.654Z,21.02
2022-12-03T17:24:05.174Z,21.00
2022-12-03T17:27:08.036Z,21.92
2022-12-03T17:30:11.050Z,22.65
2022-12-03T17:33:13.181Z,21.85
2022-12-03T17:36:15.526Z,22.48
2022-12-03T17:39:17.697Z,23.52
2022-12-03T17:42:20.041Z,23.30
2022-12-03T17:45:22.108Z,24.12
2022-12-03T17:48:24.513Z,23.75
2022-12-03T17:51:26.598Z,24.45
2022-12-03T17:54:43.477Z,24.60
2022-12-03T17:57:51.180Z,23.27
2022-12-03T18:00:58.595Z,23.23
2022-12-03T18:04:04.718Z,24.25
2022-12-03T18:07:06.910Z,24.75
2022-12-03T18:10:09.547Z,23.83
2022-12-03T18:13:11.686Z,25.10
2022-12-03T18:16:15.513Z,24.30
2022-12-03T18:19:17.710Z,24.52
2022-12-03T18:22:20.509Z,25.62
2022-12-03T18:25:22.602Z,27.02
2022-12-03T18:28:24.985Z,26.62
2022-12-03T18:31:27.130Z,26.95
2022-12-03T18:34:29.509Z,25.40
2022-12-03T18:37:32.168Z,26.95
2022-12-03T18:40:34.621Z,26.85
2022-12-03T18:43:36.698Z,26.90
2022-12-03T18:46:53.492Z,26.50
2022-12-03T18:49:57.805Z,26.17
2022-12-03T18:53:00.399Z,26.70
2022-12-03T18:56:02.936Z,26.55
2022-12-03T18:59:07.402Z,26.95
2022-12-03T19:02:53.844Z,26.87
2022-12-03T19:05:40.108Z,27.60
2022-12-03T19:08:42.971Z,26.40
2022-12-03T19:11:45.366Z,25.62
2022-12-03T19:14:47.482Z,27.55
2022-12-03T19:17:50.317Z,27.30
2022-12-03T19:20:52.474Z,27.05
2022-12-03T19:24:22.632Z,25.83
2022-12-03T19:27:17.362Z,27.20
2022-12-03T19:30:21.988Z,26.62
2022-12-03T19:33:28.423Z,28.20
2022-12-03T19:36:32.248Z,27.08
2022-12-03T19:39:34.696Z,26.60
2022-12-03T19:42:37.103Z,26.60
2022-12-03T19:45:39.245Z,26.58
2022-12-03T19:48:42.217Z,26.33
2022-12-03T19:51:44.388Z,26.90
2022-12-03T19:54:46.748Z,27.45
2022-12-03T19:57:48.864Z,27.37
2022-12-03T20:00:51.259Z,26.85
2022-12-03T20:03:56.192Z,26.83
2022-12-03T20:06:58.322Z,27.67
2022-12-03T20:10:00.688Z,28.08
2022-12-03T20:13:03.257Z,27.75
2022-12-03T20:16:08.638Z,29.08
2022-12-03T20:19:12.841Z,27.27
2022-12-03T20:22:15.225Z,28.08
2022-12-03T20:25:17.380Z,27.20
2022-12-03T20:28:20.095Z,27.75
2022-12-03T20:31:24.491Z,28.05
2022-12-03T20:34:26.932Z,28.40
2022-12-03T20:37:29.222Z,27.37
2022-12-03T20:40:36.420Z,28.75
2022-12-03T20:43:39.139Z,28.55
2022-12-03T20:46:41.612Z,27.98
2022-12-03T20:49:43.825Z,27.80
2022-12-03T20:53:03.581Z,28.38
2022-12-03T20:56:08.624Z,28.62
2022-12-03T20:59:14.447Z,28.65
2022-12-03T21:02:16.738Z,26.85
2022-12-03T21:05:19.291Z,28.58
2022-12-03T21:08:39.877Z,27.98
2022-12-03T21:11:43.146Z,27.85
2022-12-03T21:14:45.341Z,28.45
2022-12-03T21:17:47.785Z,28.95
2022-12-03T21:20:49.960Z,27.92
2022-12-03T21:23:52.802Z,27.85
2022-12-03T21:26:54.893Z,27.58
2022-12-03T21:29:57.538Z,28.58
2022-12-03T21:32:59.895Z,29.27
2022-12-03T21:36:02.755Z,26.70
2022-12-03T21:39:06.057Z,26.48
2022-12-03T21:42:22.328Z,27.40
2022-12-03T21:45:30.819Z,27.55
2022-12-03T21:48:33.723Z,27.35
2022-12-03T21:51:35.797Z,27.13
2022-12-03T21:54:38.264Z,27.95
2022-12-03T21:57:40.403Z,28.87
2022-12-03T22:00:42.791Z,28.05
2022-12-03T22:03:45.649Z,28.33
2022-12-03T22:06:47.764Z,30.35
2022-12-03T22:09:50.115Z,29.00
2022-12-03T22:12:52.209Z,29.37
2022-12-03T22:15:54.636Z,28.98
2022-12-03T22:18:56.751Z,30.52
2022-12-03T22:21:59.164Z,30.10
2022-12-03T22:25:01.272Z,29.00
2022-12-03T22:28:03.801Z,29.83
2022-12-03T22:31:09.985Z,29.45
2022-12-03T22:34:12.726Z,29.90
2022-12-03T22:37:15.037Z,29.85
2022-12-03T22:40:20.648Z,30.20
2022-12-03T22:43:23.365Z,29.55
2022-12-03T22:46:25.817Z,29.05
2022-12-03T22:49:28.097Z,30.27
2022-12-03T22:52:30.518Z,31.27
2022-12-03T22:55:32.849Z,31.33
2022-12-03T22:58:37.869Z,30.12
2022-12-03T23:01:41.177Z,30.08
2022-12-03T23:04:43.872Z,30.62
2022-12-03T23:07:46.015Z,29.90
2022-12-03T23:10:51.259Z,28.92
2022-12-03T23:13:55.269Z,30.23
2022-12-03T23:16:57.798Z,28.73
2022-12-03T23:20:00.151Z,29.60
2022-12-03T23:23:02.538Z,29.52
2022-12-03T23:26:07.524Z,29.92
2022-12-03T23:29:09.949Z,30.23
2022-12-03T23:32:12.154Z,29.15
2022-12-03T23:35:14.647Z,29.60
2022-12-03T23:38:19.726Z,28.92
2022-12-03T23:41:23.484Z,29.12
2022-12-03T23:44:27.487Z,29.23
2022-12-03T23:47:30.041Z,28.60
2022-12-03T23:50:32.099Z,27.55
2022-12-03T23:53:35.485Z,29.40
2022-12-03T23:56:38.129Z,27.42
2022-12-03T23:59:42.025Z,27.90
